| time (UTC) | temp C | wind direction | speed KPH | gust KPH | rain 1hr cm | rain 24hr cm | rain mn cm | humidity % | barometer mb |
| 20260507181554 | 14 | 350 | 6.4 | 12.9 | 0.00 | 0.00 | 0.00 | 70 | 1016.9 |
| 20260507180055 | 14 | 19 | 8.0 | 17.7 | 0.00 | 0.00 | 0.00 | 68 | 1016.8 |
| 20260507174552 | 15 | 319 | 8.0 | 16.1 | 0.00 | 0.00 | 0.00 | 66 | 1016.7 |
| 20260507173100 | 15 | 338 | 9.7 | 17.7 | 0.00 | 0.00 | 0.00 | 64 | 1016.6 |
| 20260507171554 | 15 | 342 | 8.0 | 16.1 | 0.00 | 0.00 | 0.00 | 65 | 1016.6 |
| 20260507170053 | 15 | 5 | 6.4 | 14.5 | 0.00 | 0.00 | 0.00 | 65 | 1016.4 |
| 20260507164550 | 15 | 324 | 8.0 | 16.1 | 0.00 | 0.00 | 0.00 | 63 | 1016.5 |
| 20260507163049 | 16 | 295 | 9.7 | 19.3 | 0.00 | 0.00 | 0.00 | 61 | 1016.4 |
| 20260507161553 | 16 | 296 | 9.7 | 16.1 | 0.00 | 0.00 | 0.00 | 62 | 1016.4 |
| 20260507160050 | 16 | 311 | 9.7 | 16.1 | 0.00 | 0.00 | 0.00 | 63 | 1016.3 |
| 20260507154548 | 16 | 325 | 8.0 | 16.1 | 0.00 | 0.00 | 0.00 | 64 | 1016.5 |
| 20260507153058 | 16 | 355 | 3.2 | 11.3 | 0.00 | 0.00 | 0.00 | 65 | 1016.4 |
| 20260507151545 | 16 | 324 | 6.4 | 16.1 | 0.00 | 0.00 | 0.00 | 64 | 1016.4 |
| 20260507150046 | 16 | 331 | 11.3 | 19.3 | 0.00 | 0.00 | 0.00 | 64 | 1016.6 |
| 20260507144545 | 16 | 296 | 14.5 | 22.5 | 0.00 | 0.00 | 0.00 | 65 | 1016.4 |
| 20260507143057 | 16 | 350 | 4.8 | 14.5 | 0.00 | 0.00 | 0.00 | 66 | 1016.5 |
| 20260507141540 | 16 | 13 | 8.0 | 14.5 | 0.00 | 0.00 | 0.00 | 66 | 1016.6 |
| 20260507140138 | 15 | 32 | 6.4 | 17.7 | 0.00 | 0.00 | 0.00 | 71 | 1016.7 |
| 20260507134538 | 14 | 331 | 3.2 | 11.3 | 0.00 | 0.00 | 0.00 | 74 | 1016.8 |
| 20260507133044 | 13 | 5 | 3.2 | 12.9 | 0.00 | 0.00 | 0.00 | 83 | 1017.0 |
| 20260507131546 | 13 | 16 | 8.0 | 16.1 | 0.00 | 0.00 | 0.00 | 84 | 1017.1 |
| 20260507130041 | 13 | 315 | 11.3 | 30.6 | 0.00 | 0.00 | 0.00 | 77 | 1017.2 |
| 20260507124538 | 15 | 332 | 11.3 | 17.7 | 0.00 | 0.00 | 0.00 | 72 | 1016.9 |
| 20260507123035 | 15 | 342 | 12.9 | 22.5 | 0.00 | 0.00 | 0.00 | 72 | 1017.0 |
| 20260507121534 | 15 | 317 | 3.2 | 16.1 | 0.00 | 0.00 | 0.00 | 74 | 1017.0 |
| 20260507120033 | 15 | 32 | 6.4 | 14.5 | 0.00 | 0.00 | 0.00 | 78 | 1017.1 |
| 20260507114534 | 14 | 328 | 6.4 | 17.7 | 0.00 | 0.00 | 0.00 | 77 | 1017.1 |
| 20260507113031 | 13 | 18 | 11.3 | 19.3 | 0.00 | 0.00 | 0.00 | 79 | 1017.3 |
| 20260507111530 | 14 | 316 | 9.7 | 19.3 | 0.00 | 0.00 | 0.00 | 73 | 1017.2 |
| 20260507110028 | 15 | 207 | 0.0 | 4.8 | 0.00 | 0.00 | 0.00 | 73 | 1017.2 |
| 20260507104525 | 14 | 217 | 0.0 | 8.0 | 0.00 | 0.00 | 0.00 | 75 | 1017.3 |
| 20260507103022 | 13 | 144 | 1.6 | 8.0 | 0.00 | 0.00 | 0.00 | 80 | 1017.4 |
| 20260507101518 | 13 | 143 | 3.2 | 11.3 | 0.00 | 0.00 | 0.00 | 84 | 1017.4 |
| 20260507100017 | 12 | 202 | 3.2 | 11.3 | 0.00 | 0.00 | 0.00 | 85 | 1017.6 |
| 20260507094516 | 12 | 288 | 4.8 | 11.3 | 0.00 | 0.00 | 0.00 | 88 | 1017.6 |
| 20260507093015 | 11 | 297 | 1.6 | 8.0 | 0.00 | 0.00 | 0.00 | 89 | 1017.6 |
| 20260507091507 | 11 | 255 | 0.0 | 4.8 | 0.00 | 0.00 | 0.00 | 92 | 1017.5 |
| 20260507090006 | 11 | 254 | 8.0 | 12.9 | 0.00 | 0.00 | 0.00 | 91 | 1017.5 |
| 20260507084507 | 10 | 250 | 4.8 | 11.3 | 0.00 | 0.00 | 0.00 | 93 | 1017.5 |
| 20260507083100 | 10 | 238 | 4.8 | 9.7 | 0.00 | 0.00 | 0.00 | 93 | 1017.5 |
| 20260507081600 | 10 | 205 | 3.2 | 8.0 | 0.00 | 0.00 | 0.00 | 95 | 1017.5 |
| 20260507080056 | 10 | 192 | 0.0 | 0.0 | 0.00 | 0.00 | 0.00 | 97 | 1017.5 |
| 20260507074555 | 10 | 126 | 0.0 | 0.0 | 0.00 | 0.00 | 0.00 | 97 | 1017.5 |
| 20260507073049 | 9 | 125 | 0.0 | 0.0 | 0.00 | 0.00 | 0.00 | 97 | 1017.4 |
| 20260507071548 | 9 | 125 | 0.0 | 0.0 | 0.00 | 0.00 | 0.00 | 97 | 1017.3 |
| 20260507070100 | 9 | 125 | 0.0 | 0.0 | 0.00 | 0.00 | 0.00 | 97 | 1017.3 |
| 20260507064549 | 9 | 125 | 0.0 | 0.0 | 0.00 | 0.00 | 0.00 | 97 | 1017.1 |
| 20260507063038 | 8 | 125 | 0.0 | 0.0 | 0.00 | 0.00 | 0.00 | 96 | 1017.0 |
| 20260507061536 | 8 | 125 | 0.0 | 0.0 | 0.00 | 0.00 | 0.00 | 96 | 1016.9 |
| 20260507060034 | 8 | 125 | 0.0 | 4.8 | 0.00 | 0.00 | 0.00 | 96 | 1016.8 |
| 20260507054542 | 8 | 131 | 3.2 | 6.4 | 0.00 | 0.00 | 0.00 | 96 | 1016.6 |
| 20260507053033 | 8 | 173 | 0.0 | 3.2 | 0.00 | 0.00 | 0.00 | 96 | 1016.5 |
| 20260507051529 | 8 | 178 | 0.0 | 0.0 | 0.00 | 0.00 | 0.00 | 96 | 1016.4 |
| 20260507050039 | 8 | 178 | 0.0 | 0.0 | 0.00 | 0.00 | 0.00 | 96 | 1016.2 |
| 20260507044525 | 8 | 178 | 0.0 | 0.0 | 0.00 | 0.00 | 0.00 | 95 | 1016.1 |
| 20260507043023 | 8 | 178 | 0.0 | 0.0 | 0.00 | 0.00 | 0.00 | 95 | 1015.9 |
| 20260507041521 | 8 | 180 | 0.0 | 0.0 | 0.00 | 0.00 | 0.00 | 95 | 1015.8 |
| 20260507040020 | 8 | 180 | 0.0 | 0.0 | 0.00 | 0.00 | 0.00 | 94 | 1015.8 |
| 20260507034522 | 8 | 180 | 0.0 | 0.0 | 0.00 | 0.00 | 0.00 | 94 | 1015.7 |
| 20260507033019 | 8 | 180 | 0.0 | 3.2 | 0.00 | 0.00 | 0.00 | 94 | 1015.6 |
| 20260507031517 | 8 | 180 | 0.0 | 3.2 | 0.00 | 0.00 | 0.00 | 94 | 1015.4 |
| 20260507030018 | 8 | 181 | 0.0 | 1.6 | 0.00 | 0.00 | 0.00 | 94 | 1015.4 |
| 20260507024516 | 8 | 182 | 0.0 | 0.0 | 0.00 | 0.00 | 0.00 | 94 | 1015.4 |
| 20260507023015 | 8 | 182 | 0.0 | 3.2 | 0.00 | 0.00 | 0.00 | 94 | 1015.3 |
| 20260507021514 | 8 | 180 | 0.0 | 6.4 | 0.00 | 0.00 | 0.00 | 94 | 1015.2 |
| 20260507020016 | 8 | 178 | 0.0 | 6.4 | 0.00 | 0.00 | 0.00 | 94 | 1015.2 |
| 20260507014514 | 8 | 197 | 1.6 | 6.4 | 0.00 | 0.00 | 0.00 | 93 | 1015.1 |
| 20260507013012 | 8 | 192 | 1.6 | 8.0 | 0.00 | 0.00 | 0.00 | 92 | 1014.9 |
| 20260507011511 | 8 | 184 | 0.0 | 4.8 | 0.00 | 0.00 | 0.00 | 92 | 1014.8 |
| 20260507010016 | 8 | 201 | 0.0 | 8.0 | 0.00 | 0.00 | 0.00 | 92 | 1014.8 |
| 20260507004509 | 8 | 200 | 4.8 | 9.7 | 0.00 | 0.00 | 0.00 | 92 | 1014.8 |
| 20260507003008 | 8 | 194 | 3.2 | 11.3 | 0.00 | 0.00 | 0.00 | 93 | 1014.7 |
| 20260507001506 | 8 | 169 | 0.0 | 11.3 | 0.00 | 0.00 | 0.00 | 95 | 1014.7 |
| 20260507000004 | 7 | 121 | 4.8 | 12.9 | 0.00 | 0.00 | 0.00 | 97 | 1014.8 |
| 20260506234501 | 7 | 119 | 6.4 | 11.3 | 0.00 | 0.00 | 0.00 | 96 | 1014.8 |
| 20260506233100 | 7 | 128 | 4.8 | 11.3 | 0.00 | 0.00 | 0.00 | 96 | 1014.8 |
| 20260506231558 | 7 | 125 | 3.2 | 8.0 | 0.00 | 0.00 | 0.00 | 96 | 1014.7 |
| 20260506230103 | 7 | 115 | 6.4 | 12.9 | 0.00 | 0.00 | 0.00 | 96 | 1014.6 |
| 20260506224556 | 7 | 111 | 0.0 | 6.4 | 0.00 | 0.00 | 0.00 | 97 | 1014.5 |
| 20260506223058 | 7 | 111 | 6.4 | 8.0 | 0.00 | 0.00 | 0.00 | 96 | 1014.5 |
| 20260506221600 | 7 | 117 | 4.8 | 6.4 | 0.00 | 0.00 | 0.00 | 96 | 1014.4 |
| 20260506220050 | 7 | 137 | 0.0 | 6.4 | 0.00 | 0.00 | 0.00 | 96 | 1014.4 |
| 20260506214548 | 7 | 144 | 1.6 | 8.0 | 0.00 | 0.00 | 0.00 | 96 | 1014.3 |
| 20260506213054 | 7 | 120 | 0.0 | 4.8 | 0.00 | 0.00 | 0.00 | 96 | 1014.3 |
| 20260506211552 | 7 | 120 | 4.8 | 12.9 | 0.00 | 0.00 | 0.00 | 96 | 1014.2 |
| 20260506210048 | 7 | 120 | 8.0 | 12.9 | 0.00 | 0.00 | 0.00 | 96 | 1014.1 |
| 20260506204546 | 7 | 107 | 4.8 | 14.5 | 0.00 | 0.00 | 0.00 | 96 | 1014.1 |
| 20260506203042 | 7 | 117 | 6.4 | 14.5 | 0.00 | 0.00 | 0.00 | 95 | 1014.1 |
| 20260506201540 | 8 | 121 | 3.2 | 16.1 | 0.00 | 0.00 | 0.00 | 93 | 1013.8 |
| 20260506200037 | 8 | 113 | 4.8 | 11.3 | 0.00 | 0.00 | 0.00 | 92 | 1013.4 |
| 20260506194534 | 9 | 105 | 6.4 | 11.3 | 0.00 | 0.00 | 0.00 | 91 | 1013.3 |
| 20260506193044 | 9 | 114 | 4.8 | 8.0 | 0.00 | 0.00 | 0.00 | 91 | 1013.1 |
| 20260506191532 | 9 | 119 | 4.8 | 12.9 | 0.00 | 0.00 | 0.00 | 91 | 1013.0 |
| 20260506190030 | 9 | 113 | 6.4 | 11.3 | 0.00 | 0.00 | 0.00 | 91 | 1012.9 |
| 20260506184531 | 10 | 151 | 3.2 | 8.0 | 0.00 | 0.00 | 0.00 | 89 | 1012.8 |
| 20260506183026 | 10 | 189 | 3.2 | 9.7 | 0.00 | 0.00 | 0.00 | 88 | 1012.7 |